Weather reports worldwide

Advertisment
Monte S. Angelo, Italy (16258): temperature & dewpoint: 15.05.2019 16:00:00 - 21.05.2019 16:00:00 (CEST)Monte S. Angelo, Italy (16258): wind speed: 15.05.2019 16:00:00 - 21.05.2019 16:00:00 (CEST)Monte S. Angelo, Italy (16258): wind direction: 15.05.2019 16:00:00 - 21.05.2019 16:00:00 (CEST)Monte S. Angelo, Italy (16258): visibility: 15.05.2019 16:00:00 - 21.05.2019 16:00:00 (CEST)
Date & Time tt [°C] td [°C] ff [km/h] ff [kn] dd vv [km]
21.05.2019 16:00:00 - - - - - -
21.05.2019 15:00:00 14,0 6,8 26 14 SW 20
21.05.2019 14:00:00 14,2 7,0 28 15 SSW 20
21.05.2019 13:00:00 13,4 7,0 26 14 SSW 20
21.05.2019 12:00:00 13,4 6,7 24 13 SSW 20
21.05.2019 11:00:00 12,0 7,9 31 17 SSW 20
21.05.2019 10:00:00 11,0 7,5 21 11 SSW 20
21.05.2019 09:00:00 10,2 6,5 28 15 SSW 15
21.05.2019 08:00:00 9,4 7,2 22 12 SW 15
21.05.2019 07:00:00 8,4 6,2 26 14 SW 15
21.05.2019 06:00:00 8,4 6,2 18 10 SW 15
21.05.2019 05:00:00 8,2 4,4 29 16 SW 15
21.05.2019 04:00:00 8,2 5,3 31 17 SW 10
21.05.2019 03:00:00 8,0 6,0 31 17 SW 10
21.05.2019 02:00:00 7,8 6,3 29 16 SSW 10
21.05.2019 01:00:00 7,8 5,9 28 15 SSW 10
21.05.2019 00:00:00 7,8 7,5 26 14 SSW 10
20.05.2019 23:00:00 7,8 7,8 21 11 SW 10
20.05.2019 22:00:00 8,2 7,4 26 14 SSW 10
20.05.2019 21:00:00 8,2 6,0 28 15 SSW 15
20.05.2019 20:00:00 9,6 5,0 26 14 SSW 15
20.05.2019 19:00:00 10,6 4,7 28 15 S 15
20.05.2019 18:00:00 11,0 4,7 29 16 SSW 10
20.05.2019 17:00:00 12,2 1,5 24 13 SSW 10
20.05.2019 16:00:00 13,0 2,5 28 15 SSW 20
20.05.2019 15:00:00 13,0 2,8 24 13 SW 20
20.05.2019 14:00:00 12,2 3,2 16 9 SSW 20
20.05.2019 13:00:00 10,0 4,6 22 12 SW 15
20.05.2019 12:00:00 11,4 3,9 24 13 SSW 20
20.05.2019 11:00:00 10,2 5,8 21 11 SSW 20
20.05.2019 10:00:00 9,4 5,2 21 11 SSW 20
20.05.2019 09:00:00 9,0 5,6 21 11 SSW 20
20.05.2019 08:00:00 8,0 6,5 26 14 SW 20
20.05.2019 07:00:00 8,2 6,5 22 12 SW 15
20.05.2019 06:00:00 8,0 6,8 28 15 SW 15
20.05.2019 05:00:00 7,8 6,3 31 17 SW 15
20.05.2019 04:00:00 8,0 5,6 26 14 SW 15
20.05.2019 03:00:00 8,2 6,5 15 8 SSW 15
20.05.2019 02:00:00 8,0 6,5 18 10 SSW 15
20.05.2019 01:00:00 7,8 5,8 22 12 SW 15
20.05.2019 00:00:00 8,2 5,5 28 15 SW 15
19.05.2019 23:00:00 8,6 3,8 29 16 SW 15
19.05.2019 22:00:00 9,4 4,2 29 16 SW 15
19.05.2019 21:00:00 9,6 2,7 35 19 SSW 15
19.05.2019 20:00:00 10,4 4,8 28 15 SSW 15
19.05.2019 19:00:00 11,8 2,3 28 15 SSW 15
19.05.2019 18:00:00 13,0 3,1 22 12 SSW 15
19.05.2019 17:00:00 12,8 3,2 21 11 SSW 15
19.05.2019 16:00:00 12,6 4,3 21 11 SSW 15
19.05.2019 15:00:00 13,2 3,8 28 15 SSW 15
19.05.2019 14:00:00 13,2 8,1 15 8 S 15
19.05.2019 13:00:00 13,6 7,4 11 6 S 15
19.05.2019 12:00:00 12,8 7,3 13 7 SSW 15
19.05.2019 11:00:00 12,2 7,5 11 6 S 15
19.05.2019 10:00:00 11,0 6,6 13 7 S 15
19.05.2019 09:00:00 10,0 7,4 13 7 SSW 15
19.05.2019 08:00:00 10,0 4,8 15 8 SSW 15
19.05.2019 07:00:00 10,4 3,7 15 8 SW 15
19.05.2019 06:00:00 10,6 5,0 11 6 SW 15
19.05.2019 05:00:00 10,6 6,9 11 6 SW 15
19.05.2019 04:00:00 11,0 6,0 9 5 SSW 15
19.05.2019 03:00:00 11,0 5,3 13 7 SW 15
19.05.2019 02:00:00 11,4 6,7 13 7 SSW 15
19.05.2019 01:00:00 11,2 8,6 11 6 SSW 10
19.05.2019 00:00:00 11,4 9,8 9 5 S -
18.05.2019 23:00:00 11,8 10,5 11 6 S -
18.05.2019 22:00:00 11,8 10,5 9 5 SSE 15
18.05.2019 21:00:00 11,4 9,8 11 6 SE 10
18.05.2019 20:00:00 11,2 9,0 11 6 ESE 10
18.05.2019 19:00:00 11,4 8,6 5 3 E 10
18.05.2019 18:00:00 12,0 9,6 9 5 E 10
18.05.2019 17:00:00 11,6 9,9 8 4 ESE 10
18.05.2019 16:00:00 11,0 9,9 9 5 SE -
18.05.2019 15:00:00 11,2 10,0 11 6 SSE -
18.05.2019 14:00:00 10,6 9,7 15 8 SSE -
18.05.2019 13:00:00 11,8 10,2 21 11 S -
18.05.2019 12:00:00 12,0 10,7 18 10 SSE 10
18.05.2019 11:00:00 11,0 8,9 15 8 SSE 10
18.05.2019 10:00:00 11,2 9,6 22 12 SSE 15
18.05.2019 09:00:00 9,8 6,5 46 25 S 15
18.05.2019 08:00:00 10,2 6,9 18 10 S 15
18.05.2019 07:00:00 10,0 8,1 13 7 S 15
18.05.2019 06:00:00 10,0 7,9 24 13 S 20
18.05.2019 05:00:00 9,6 7,2 21 11 S 20
18.05.2019 04:00:00 10,0 7,6 18 10 S 20
18.05.2019 03:00:00 10,2 5,0 16 9 S 20
18.05.2019 02:00:00 10,6 1,9 18 10 S 20
18.05.2019 01:00:00 10,8 1,6 13 7 SSE 20
18.05.2019 00:00:00 10,4 3,0 13 7 SSE 20
17.05.2019 23:00:00 10,0 6,7 16 9 SSE 20
17.05.2019 22:00:00 10,2 6,0 18 10 SE 20
17.05.2019 21:00:00 10,6 5,4 15 8 SE 20
17.05.2019 20:00:00 11,4 4,4 11 6 ESE 20
17.05.2019 19:00:00 11,4 7,3 8 4 SE 20
17.05.2019 18:00:00 12,2 5,1 9 5 SSE 20
17.05.2019 17:00:00 13,4 0,1 11 6 SSE 20
17.05.2019 16:00:00 12,4 0,8 9 5 SSE 20
17.05.2019 15:00:00 12,6 4,3 13 7 SSE 20
17.05.2019 14:00:00 11,6 3,4 9 5 SSE 20
17.05.2019 13:00:00 10,8 3,8 9 5 S 20
17.05.2019 12:00:00 10,6 6,0 9 5 SSE 20
17.05.2019 11:00:00 10,2 8,1 9 5 SSE 20
17.05.2019 10:00:00 9,8 5,4 8 4 SSE 15
17.05.2019 09:00:00 8,2 5,0 2 1 S 20
17.05.2019 08:00:00 8,0 1,2 4 2 SSE 20
17.05.2019 07:00:00 7,8 2,1 4 2 SSE 20
17.05.2019 06:00:00 7,8 1,6 0 0 N 20
17.05.2019 05:00:00 7,4 1,5 4 2 SSE 10
17.05.2019 04:00:00 7,2 4,0 4 2 NE 10
17.05.2019 03:00:00 7,4 2,7 4 2 ESE 10
17.05.2019 02:00:00 7,2 1,3 4 2 N 10
17.05.2019 01:00:00 7,4 1,5 4 2 NE 10
17.05.2019 00:00:00 7,4 1,9 4 2 NE 10
16.05.2019 23:00:00 7,0 3,8 4 2 NW 10
16.05.2019 22:00:00 7,0 3,8 9 5 WNW 10
16.05.2019 21:00:00 7,2 4,5 8 4 WNW 10
16.05.2019 20:00:00 7,4 4,7 5 3 WNW 30
16.05.2019 19:00:00 7,0 4,3 11 6 WNW 30
16.05.2019 18:00:00 7,2 6,5 15 8 NW -
16.05.2019 17:00:00 7,6 6,9 18 10 NW -
16.05.2019 16:00:00 8,0 6,5 15 8 NW 20
16.05.2019 15:00:00 7,4 5,9 11 6 NW 20
16.05.2019 14:00:00 8,0 7,3 13 7 NW -
16.05.2019 13:00:00 8,0 6,5 8 4 NW 20
16.05.2019 12:00:00 8,4 6,0 5 3 SSW -
16.05.2019 11:00:00 8,2 5,7 8 4 NW 12
16.05.2019 10:00:00 7,2 4,9 8 4 NNW 12
16.05.2019 09:00:00 6,2 5,5 9 5 NNW -
16.05.2019 08:00:00 6,0 4,8 15 8 NNW -
16.05.2019 07:00:00 5,6 4,1 15 8 NW -
16.05.2019 06:00:00 5,2 4,6 18 10 NNW -
16.05.2019 05:00:00 5,4 4,2 16 9 NNW -
16.05.2019 04:00:00 5,8 4,9 5 3 NNW -
16.05.2019 03:00:00 6,2 5,3 8 4 NNE -
16.05.2019 02:00:00 6,0 5,4 5 3 NNE -
16.05.2019 01:00:00 5,8 5,1 8 4 N -
16.05.2019 00:00:00 6,0 5,4 8 4 N -
15.05.2019 23:00:00 5,8 5,1 4 2 N -
15.05.2019 22:00:00 6,2 4,7 5 3 NE 10
15.05.2019 21:00:00 6,4 4,4 4 2 ENE 10
15.05.2019 20:00:00 6,2 5,5 8 4 SSE -
15.05.2019 19:00:00 6,4 5,7 8 4 SSE -
15.05.2019 18:00:00 6,0 5,3 4 2 SE -
15.05.2019 17:00:00 6,8 6,1 4 2 SW -
15.05.2019 16:00:00 7,0 6,3 5 3 SSE -

tt = temperature
td = dewpoint
ff = wind speed
dd = wind direction
vv = visibility

Next stations